createdAt,value
2023-04-02T00:00:31.556Z,4.59
2023-04-02T00:01:31.539Z,4.59
2023-04-02T00:02:31.747Z,4.59
2023-04-02T00:03:31.637Z,4.61
2023-04-02T00:04:31.532Z,4.57
2023-04-02T00:05:31.629Z,4.57
2023-04-02T00:06:31.505Z,4.54
2023-04-02T00:07:31.491Z,4.51
2023-04-02T00:08:31.504Z,4.49
2023-04-02T00:09:31.478Z,4.50
2023-04-02T00:10:31.465Z,4.50
2023-04-02T00:11:31.465Z,4.51
2023-04-02T00:12:31.431Z,4.56
2023-04-02T00:13:31.430Z,4.53
2023-04-02T00:14:31.444Z,4.53
2023-04-02T00:15:31.415Z,4.54
2023-04-02T00:16:31.419Z,4.54
2023-04-02T00:17:31.389Z,4.53
2023-04-02T00:18:31.457Z,4.56
2023-04-02T00:19:31.379Z,4.54
2023-04-02T00:20:31.401Z,4.51
2023-04-02T00:21:31.363Z,4.50
2023-04-02T00:22:31.335Z,4.49
2023-04-02T00:23:31.331Z,4.50
2023-04-02T00:24:31.326Z,4.53
2023-04-02T00:25:31.338Z,4.56
2023-04-02T00:26:31.297Z,4.56
2023-04-02T00:27:31.285Z,4.53
2023-04-02T00:28:31.286Z,4.56
2023-04-02T00:29:31.272Z,4.53
2023-04-02T00:30:31.272Z,4.56
2023-04-02T00:31:31.285Z,4.51
2023-04-02T00:32:31.304Z,4.46
2023-04-02T00:33:31.233Z,4.44
2023-04-02T00:34:31.243Z,4.39
2023-04-02T00:35:31.211Z,4.44
2023-04-02T00:36:31.212Z,4.42
2023-04-02T00:37:31.198Z,4.42
2023-04-02T00:38:31.185Z,4.39
2023-04-02T00:39:31.160Z,4.39
2023-04-02T00:40:31.171Z,4.42
2023-04-02T00:41:31.148Z,4.39
2023-04-02T00:42:31.134Z,4.39
2023-04-02T00:43:31.135Z,4.42
2023-04-02T00:44:31.140Z,4.43
2023-04-02T00:45:31.104Z,4.44
2023-04-02T00:46:31.129Z,4.43
2023-04-02T00:47:31.141Z,4.39
2023-04-02T00:48:31.094Z,4.36
2023-04-02T00:49:31.076Z,4.32
2023-04-02T00:50:31.060Z,4.32
2023-04-02T00:51:31.041Z,4.34
2023-04-02T00:52:31.050Z,4.34
2023-04-02T00:53:31.021Z,4.35
2023-04-02T00:54:31.013Z,4.35
2023-04-02T00:55:31.036Z,4.36
2023-04-02T00:56:30.995Z,4.32
2023-04-02T00:57:31.032Z,4.32
2023-04-02T00:58:30.968Z,4.32
2023-04-02T00:59:30.967Z,4.31
2023-04-02T01:00:30.981Z,4.29
2023-04-02T01:01:31.009Z,4.28
2023-04-02T01:02:31.086Z,4.29
2023-04-02T01:03:31.021Z,4.29
2023-04-02T01:04:30.903Z,4.32
2023-04-02T01:05:30.894Z,4.34
2023-04-02T01:06:30.936Z,4.34
2023-04-02T01:07:30.882Z,4.32
2023-04-02T01:08:31.472Z,4.32
2023-04-02T01:09:30.859Z,4.31
2023-04-02T01:10:30.853Z,4.34
2023-04-02T01:11:30.870Z,4.31
2023-04-02T01:12:30.841Z,4.29
2023-04-02T01:13:30.826Z,4.26
2023-04-02T01:14:30.810Z,4.26
2023-04-02T01:15:30.814Z,4.26
2023-04-02T01:16:31.241Z,4.26
2023-04-02T01:17:30.846Z,4.21
2023-04-02T01:18:31.015Z,4.20
2023-04-02T01:19:30.756Z,4.18
2023-04-02T01:20:30.737Z,4.17
2023-04-02T01:21:30.790Z,4.17
2023-04-02T01:22:30.763Z,4.16
2023-04-02T01:23:30.726Z,4.16
2023-04-02T01:24:30.699Z,4.14
2023-04-02T01:25:30.700Z,4.14
2023-04-02T01:26:30.696Z,4.14
2023-04-02T01:27:30.671Z,4.13
2023-04-02T01:28:30.661Z,4.13
2023-04-02T01:29:30.665Z,4.11
2023-04-02T01:30:30.649Z,4.08
2023-04-02T01:31:30.685Z,4.06
2023-04-02T01:32:30.691Z,4.02
2023-04-02T01:33:30.638Z,4.00
2023-04-02T01:34:30.609Z,4.00
2023-04-02T01:35:30.589Z,4.00
2023-04-02T01:36:30.634Z,3.98
2023-04-02T01:37:30.571Z,4.00
2023-04-02T01:38:30.594Z,3.99
2023-04-02T01:39:30.544Z,3.95
2023-04-02T01:40:30.548Z,3.90
2023-04-02T01:41:30.562Z,3.84
2023-04-02T01:42:30.514Z,3.81
2023-04-02T01:43:30.548Z,3.75
2023-04-02T01:44:30.497Z,3.71
2023-04-02T01:45:30.478Z,3.68
2023-04-02T01:46:30.509Z,3.67
2023-04-02T01:47:30.497Z,3.62
2023-04-02T01:48:30.472Z,3.62
2023-04-02T01:49:30.433Z,3.60
2023-04-02T01:50:30.433Z,3.56
2023-04-02T01:51:30.454Z,3.54
2023-04-02T01:52:30.415Z,3.56
2023-04-02T01:53:30.395Z,3.54
2023-04-02T01:54:30.388Z,3.57
2023-04-02T01:55:30.392Z,3.59
2023-04-02T01:56:30.389Z,3.57
2023-04-02T01:57:30.432Z,3.59
2023-04-02T01:58:30.352Z,3.59
2023-04-02T01:59:30.357Z,3.60
2023-04-02T02:00:30.404Z,3.60
2023-04-02T02:01:30.326Z,3.59
2023-04-02T02:02:30.415Z,3.57
2023-04-02T02:03:30.308Z,3.57
2023-04-02T02:04:30.293Z,3.54
2023-04-02T02:05:30.266Z,3.53
2023-04-02T02:06:30.260Z,3.52
2023-04-02T02:07:30.270Z,3.52
2023-04-02T02:08:30.245Z,3.53
2023-04-02T02:09:30.229Z,3.52
2023-04-02T02:10:30.247Z,3.52
2023-04-02T02:11:30.214Z,3.53
2023-04-02T02:12:30.202Z,3.54
2023-04-02T02:13:30.223Z,3.53
2023-04-02T02:14:30.185Z,3.52
2023-04-02T02:15:30.175Z,3.49
2023-04-02T02:16:30.269Z,3.45
2023-04-02T02:17:30.176Z,3.49
2023-04-02T02:18:30.132Z,3.45
2023-04-02T02:19:30.144Z,3.44
2023-04-02T02:20:30.116Z,3.44
2023-04-02T02:21:30.138Z,3.44
2023-04-02T02:22:30.111Z,3.41
2023-04-02T02:23:30.081Z,3.41
2023-04-02T02:24:30.092Z,3.39
2023-04-02T02:25:30.060Z,3.37
2023-04-02T02:26:30.078Z,3.35
2023-04-02T02:27:30.057Z,3.34
2023-04-02T02:28:30.039Z,3.33
2023-04-02T02:29:30.028Z,3.34
2023-04-02T02:30:30.030Z,3.34
2023-04-02T02:31:30.065Z,3.35
2023-04-02T02:32:30.031Z,3.35
2023-04-02T02:33:30.006Z,3.30
2023-04-02T02:34:29.966Z,3.30
2023-04-02T02:35:29.967Z,3.33
2023-04-02T02:36:29.961Z,3.33
2023-04-02T02:37:29.935Z,3.31
2023-04-02T02:38:29.935Z,3.31
2023-04-02T02:39:29.929Z,3.30
2023-04-02T02:40:29.958Z,3.31
2023-04-02T02:41:29.919Z,3.30
2023-04-02T02:42:29.909Z,3.31
2023-04-02T02:43:29.879Z,3.28
2023-04-02T02:44:29.871Z,3.28
2023-04-02T02:45:29.867Z,3.31
2023-04-02T02:46:29.937Z,3.31
2023-04-02T02:47:29.901Z,3.31
2023-04-02T02:48:29.856Z,3.31
2023-04-02T02:49:29.834Z,3.30
2023-04-02T02:50:29.837Z,3.30
2023-04-02T02:51:29.802Z,3.28
2023-04-02T02:52:29.824Z,3.26
2023-04-02T02:53:29.776Z,3.25
2023-04-02T02:54:29.766Z,3.25
2023-04-02T02:55:29.876Z,3.22
2023-04-02T02:56:29.736Z,3.19
2023-04-02T02:57:29.782Z,3.20
2023-04-02T02:58:29.721Z,3.19
2023-04-02T02:59:29.721Z,3.23
2023-04-02T03:00:29.715Z,3.22
2023-04-02T03:01:29.707Z,3.20
2023-04-02T03:02:29.797Z,3.17
2023-04-02T03:03:29.762Z,3.19
2023-04-02T03:04:29.678Z,3.17
2023-04-02T03:05:29.675Z,3.16
2023-04-02T03:06:29.646Z,3.16
2023-04-02T03:07:29.627Z,3.13
2023-04-02T03:08:29.664Z,3.10
2023-04-02T03:09:29.601Z,3.08
2023-04-02T03:10:29.643Z,3.05
2023-04-02T03:11:29.721Z,3.07
2023-04-02T03:12:29.578Z,3.08
2023-04-02T03:13:29.557Z,3.12
2023-04-02T03:14:29.556Z,3.12
2023-04-02T03:15:29.577Z,3.12
2023-04-02T03:16:29.532Z,3.13
2023-04-02T03:17:29.547Z,3.08
2023-04-02T03:18:29.530Z,3.10
2023-04-02T03:19:29.506Z,2.99
2023-04-02T03:20:29.492Z,2.95
2023-04-02T03:21:29.481Z,2.92
2023-04-02T03:22:29.478Z,2.94
2023-04-02T03:23:29.492Z,2.92
2023-04-02T03:24:29.440Z,2.92
2023-04-02T03:25:29.470Z,2.89
2023-04-02T03:26:29.442Z,2.86
2023-04-02T03:27:29.428Z,2.84
2023-04-02T03:28:29.418Z,2.83
2023-04-02T03:29:29.422Z,2.86
2023-04-02T03:30:29.397Z,2.86
2023-04-02T03:31:29.424Z,2.84
2023-04-02T03:32:29.407Z,2.84
2023-04-02T03:33:29.364Z,2.83
2023-04-02T03:34:29.344Z,2.84
2023-04-02T03:35:29.380Z,2.87
2023-04-02T03:36:29.324Z,2.89
2023-04-02T03:37:29.316Z,2.86
2023-04-02T03:38:29.323Z,2.87
2023-04-02T03:39:29.299Z,2.90
2023-04-02T03:40:29.294Z,2.87
2023-04-02T03:41:29.316Z,2.87
2023-04-02T03:42:29.274Z,2.89
2023-04-02T03:43:29.252Z,2.92
2023-04-02T03:44:29.254Z,2.90
2023-04-02T03:45:29.236Z,2.89
2023-04-02T03:46:29.279Z,2.94
2023-04-02T03:47:29.297Z,2.90
2023-04-02T03:48:29.196Z,2.90
2023-04-02T03:49:29.205Z,2.87
2023-04-02T03:50:29.185Z,2.89
2023-04-02T03:51:29.177Z,2.86
2023-04-02T03:52:29.169Z,2.87
2023-04-02T03:53:29.260Z,2.81
2023-04-02T03:54:29.140Z,2.77
2023-04-02T03:55:29.179Z,2.77
2023-04-02T03:56:29.149Z,2.74
2023-04-02T03:57:29.182Z,2.73
2023-04-02T03:58:29.121Z,2.73
2023-04-02T03:59:29.088Z,2.74
2023-04-02T04:00:29.093Z,2.76
2023-04-02T04:01:29.097Z,2.77
2023-04-02T04:02:29.174Z,2.77
2023-04-02T04:03:29.053Z,2.77
2023-04-02T04:04:29.193Z,2.77
2023-04-02T04:05:29.060Z,2.73
2023-04-02T04:06:29.043Z,2.74
2023-04-02T04:07:29.019Z,2.74
2023-04-02T04:08:28.991Z,2.76
2023-04-02T04:09:28.989Z,2.74
2023-04-02T04:10:28.988Z,2.74
2023-04-02T04:11:29.003Z,2.74
2023-04-02T04:12:28.975Z,2.73
2023-04-02T04:13:28.968Z,2.74
2023-04-02T04:14:29.027Z,2.73
2023-04-02T04:15:28.940Z,2.69
2023-04-02T04:16:28.948Z,2.66
2023-04-02T04:17:28.919Z,2.68
2023-04-02T04:18:28.915Z,2.62
2023-04-02T04:19:28.878Z,2.62
2023-04-02T04:20:28.911Z,2.61
2023-04-02T04:21:28.877Z,2.55
2023-04-02T04:22:28.863Z,2.56
2023-04-02T04:23:28.838Z,2.56
2023-04-02T04:24:28.934Z,2.56
2023-04-02T04:25:28.846Z,2.56
2023-04-02T04:26:28.830Z,2.53
2023-04-02T04:27:28.794Z,2.53
2023-04-02T04:28:28.806Z,2.55
2023-04-02T04:29:28.789Z,2.55
2023-04-02T04:30:28.789Z,2.55
2023-04-02T04:31:28.921Z,2.56
2023-04-02T04:32:28.780Z,2.51
2023-04-02T04:33:28.739Z,2.50
2023-04-02T04:34:28.720Z,2.47
2023-04-02T04:35:28.750Z,2.45
2023-04-02T04:36:29.050Z,2.45
2023-04-02T04:37:28.661Z,2.48
2023-04-02T04:38:28.695Z,2.48
2023-04-02T04:39:28.673Z,2.45
2023-04-02T04:40:28.671Z,2.44
2023-04-02T04:41:28.634Z,2.44
2023-04-02T04:42:28.628Z,2.43
2023-04-02T04:43:28.636Z,2.40
2023-04-02T04:44:28.635Z,2.41
2023-04-02T04:45:28.614Z,2.43
2023-04-02T04:46:28.662Z,2.44
2023-04-02T04:47:28.649Z,2.43
2023-04-02T04:48:28.542Z,2.44
2023-04-02T04:49:28.527Z,2.45
2023-04-02T04:50:28.562Z,2.47
2023-04-02T04:51:28.561Z,2.45
2023-04-02T04:52:28.568Z,2.44
2023-04-02T04:53:28.508Z,2.45
2023-04-02T04:54:28.483Z,2.45
2023-04-02T04:55:28.469Z,2.47
2023-04-02T04:56:28.479Z,2.50
2023-04-02T04:57:28.604Z,2.51
2023-04-02T04:58:28.485Z,2.45
2023-04-02T04:59:28.445Z,2.37
2023-04-02T05:00:28.425Z,2.33
2023-04-02T05:01:28.510Z,2.30
2023-04-02T05:02:28.406Z,2.32
2023-04-02T05:03:28.365Z,2.30
2023-04-02T05:04:28.397Z,2.32
2023-04-02T05:05:28.377Z,2.30
2023-04-02T05:06:28.341Z,2.29
2023-04-02T05:07:28.332Z,2.29
2023-04-02T05:08:28.349Z,2.30
2023-04-02T05:09:28.309Z,2.27
2023-04-02T05:10:28.296Z,2.26
2023-04-02T05:11:28.315Z,2.29
2023-04-02T05:12:28.280Z,2.29
2023-04-02T05:13:28.287Z,2.29
2023-04-02T05:14:28.254Z,2.30
2023-04-02T05:15:28.257Z,2.27
2023-04-02T05:16:28.278Z,2.26
2023-04-02T05:17:28.238Z,2.26
2023-04-02T05:18:28.227Z,2.23
2023-04-02T05:19:28.220Z,2.22
2023-04-02T05:20:28.197Z,2.19
2023-04-02T05:21:28.197Z,2.20
2023-04-02T05:22:28.196Z,2.22
2023-04-02T05:23:28.219Z,2.23
2023-04-02T05:24:28.156Z,2.22
2023-04-02T05:25:28.143Z,2.25
2023-04-02T05:26:28.139Z,2.25
2023-04-02T05:27:28.161Z,2.23
2023-04-02T05:28:28.136Z,2.25
2023-04-02T05:29:28.107Z,2.23
2023-04-02T05:30:28.090Z,2.23
2023-04-02T05:31:28.126Z,2.23
2023-04-02T05:32:28.113Z,2.27
2023-04-02T05:33:28.075Z,2.26
2023-04-02T05:34:28.157Z,2.23
2023-04-02T05:35:28.046Z,2.23
2023-04-02T05:36:28.082Z,2.22
2023-04-02T05:37:28.045Z,2.20
2023-04-02T05:38:28.024Z,2.23
2023-04-02T05:39:27.991Z,2.25
2023-04-02T05:40:28.000Z,2.27
2023-04-02T05:41:27.973Z,2.26
2023-04-02T05:42:27.981Z,2.26
2023-04-02T05:43:27.978Z,2.29
2023-04-02T05:44:27.978Z,2.29
2023-04-02T05:45:27.957Z,2.30
2023-04-02T05:46:27.991Z,2.33
2023-04-02T05:47:27.968Z,2.33
2023-04-02T05:48:27.925Z,2.32
2023-04-02T05:49:27.911Z,2.33
2023-04-02T05:50:27.888Z,2.32
2023-04-02T05:51:28.032Z,2.33
2023-04-02T05:52:27.875Z,2.33
2023-04-02T05:53:27.888Z,2.36
2023-04-02T05:54:27.852Z,2.33
2023-04-02T05:55:27.859Z,2.33
2023-04-02T05:56:27.837Z,2.32
2023-04-02T05:57:42.415Z,2.30
2023-04-02T05:59:27.812Z,2.23
2023-04-02T06:00:27.834Z,2.22
2023-04-02T06:01:27.821Z,2.22
2023-04-02T06:02:27.910Z,2.23
2023-04-02T06:03:27.836Z,2.20
2023-04-02T06:04:27.754Z,2.23
2023-04-02T06:05:27.751Z,2.23
2023-04-02T06:06:27.746Z,2.25
2023-04-02T06:07:27.734Z,2.25
2023-04-02T06:08:27.732Z,2.25
2023-04-02T06:09:27.746Z,2.25
2023-04-02T06:10:27.704Z,2.22
2023-04-02T06:11:27.680Z,2.23
2023-04-02T06:12:27.706Z,2.26
2023-04-02T06:13:27.653Z,2.27
2023-04-02T06:14:27.639Z,2.27
2023-04-02T06:15:27.641Z,2.27
2023-04-02T06:16:27.647Z,2.27
2023-04-02T06:17:27.644Z,2.26
2023-04-02T06:18:27.631Z,2.25
2023-04-02T06:19:27.594Z,2.26
2023-04-02T06:20:27.578Z,2.27
2023-04-02T06:21:27.578Z,2.29
2023-04-02T06:22:27.563Z,2.29
2023-04-02T06:23:27.559Z,2.32
2023-04-02T06:24:27.612Z,2.33
2023-04-02T06:25:27.537Z,2.32
2023-04-02T06:26:27.533Z,2.32
2023-04-02T06:27:27.510Z,2.32
2023-04-02T06:28:27.497Z,2.33
2023-04-02T06:29:27.523Z,2.36
2023-04-02T06:30:27.537Z,2.33
2023-04-02T06:31:27.659Z,2.36
2023-04-02T06:32:27.478Z,2.30
2023-04-02T06:33:27.459Z,2.29
2023-04-02T06:34:27.458Z,2.26
2023-04-02T06:35:27.428Z,2.25
2023-04-02T06:36:27.442Z,2.27
2023-04-02T06:37:27.412Z,2.29
2023-04-02T06:38:27.426Z,2.30
2023-04-02T06:39:27.396Z,2.29
2023-04-02T06:40:27.452Z,2.29
2023-04-02T06:41:27.383Z,2.29
2023-04-02T06:42:27.368Z,2.30
2023-04-02T06:43:27.382Z,2.26
2023-04-02T06:44:27.350Z,2.25
2023-04-02T06:45:27.329Z,2.25
2023-04-02T06:46:27.382Z,2.22
2023-04-02T06:47:27.340Z,2.19
2023-04-02T06:48:27.292Z,2.20
2023-04-02T06:49:27.312Z,2.19
2023-04-02T06:50:27.365Z,2.19
2023-04-02T06:51:27.268Z,2.20
2023-04-02T06:52:27.248Z,2.20
2023-04-02T06:53:27.243Z,2.20
2023-04-02T06:54:27.259Z,2.22
2023-04-02T06:55:27.287Z,2.23
2023-04-02T06:56:27.222Z,2.23
2023-04-02T06:57:27.270Z,2.23
2023-04-02T06:58:27.216Z,2.26
2023-04-02T06:59:27.204Z,2.26
2023-04-02T07:00:27.171Z,2.27
2023-04-02T07:01:27.226Z,2.29
2023-04-02T07:02:27.186Z,2.30
2023-04-02T07:03:27.169Z,2.33
2023-04-02T07:04:27.184Z,2.33
2023-04-02T07:05:27.158Z,2.37
2023-04-02T07:06:27.101Z,2.33
2023-04-02T07:07:27.100Z,2.32
2023-04-02T07:08:27.095Z,2.33
2023-04-02T07:09:27.094Z,2.33
2023-04-02T07:10:27.096Z,2.32
2023-04-02T07:11:27.083Z,2.33
2023-04-02T07:12:27.065Z,2.33
2023-04-02T07:13:27.039Z,2.36
2023-04-02T07:14:27.048Z,2.33
2023-04-02T07:15:27.010Z,2.32
2023-04-02T07:16:27.155Z,2.33
2023-04-02T07:17:27.037Z,2.32
2023-04-02T07:18:26.997Z,2.33
2023-04-02T07:19:26.989Z,2.37
2023-04-02T07:20:26.961Z,2.37
2023-04-02T07:21:26.955Z,2.37
2023-04-02T07:22:27.193Z,2.38
2023-04-02T07:23:26.944Z,2.40
2023-04-02T07:24:26.930Z,2.40
2023-04-02T07:25:26.929Z,2.38
2023-04-02T07:26:26.898Z,2.40
2023-04-02T07:27:26.891Z,2.37
2023-04-02T07:28:26.920Z,2.36
2023-04-02T07:29:26.882Z,2.38
2023-04-02T07:30:26.891Z,2.41
2023-04-02T07:31:26.918Z,2.43
2023-04-02T07:32:27.025Z,2.43
2023-04-02T07:33:26.826Z,2.45
2023-04-02T07:34:26.810Z,2.45
2023-04-02T07:35:26.821Z,2.48
2023-04-02T07:36:26.898Z,2.48
2023-04-02T07:37:26.783Z,2.48
2023-04-02T07:38:26.771Z,2.51
2023-04-02T07:39:26.778Z,2.45
2023-04-02T07:40:26.759Z,2.44
2023-04-02T07:41:26.770Z,2.41
2023-04-02T07:42:26.733Z,2.40
2023-04-02T07:43:26.725Z,2.41
2023-04-02T07:44:26.708Z,2.38
2023-04-02T07:45:26.692Z,2.40
2023-04-02T07:46:26.764Z,2.40
2023-04-02T07:47:26.732Z,2.43
2023-04-02T07:48:26.687Z,2.43
2023-04-02T07:49:26.663Z,2.41
2023-04-02T07:50:26.701Z,2.43
2023-04-02T07:51:26.654Z,2.41
2023-04-02T07:52:26.624Z,2.41
2023-04-02T07:53:26.621Z,2.43
2023-04-02T07:54:26.634Z,2.43
2023-04-02T07:55:26.600Z,2.44
2023-04-02T07:56:26.629Z,2.44
2023-04-02T07:57:26.628Z,2.47
2023-04-02T07:58:26.567Z,2.50
2023-04-02T07:59:26.547Z,2.48
2023-04-02T08:00:26.617Z,2.50
2023-04-02T08:01:26.555Z,2.53
2023-04-02T08:02:26.589Z,2.51
2023-04-02T08:03:26.581Z,2.51
2023-04-02T08:04:26.518Z,2.51
2023-04-02T08:05:26.546Z,2.53
2023-04-02T08:06:26.628Z,2.55
2023-04-02T08:07:26.481Z,2.55
2023-04-02T08:08:26.479Z,2.55
2023-04-02T08:09:26.527Z,2.58
2023-04-02T08:10:26.433Z,2.56
2023-04-02T08:11:26.440Z,2.50
2023-04-02T08:12:26.432Z,2.51
2023-04-02T08:13:26.441Z,2.50
2023-04-02T08:14:26.449Z,2.48
2023-04-02T08:15:26.392Z,2.50
2023-04-02T08:16:26.424Z,2.50
2023-04-02T08:17:26.462Z,2.51
2023-04-02T08:18:26.355Z,2.50
2023-04-02T08:19:26.370Z,2.50
2023-04-02T08:20:26.384Z,2.55
2023-04-02T08:21:26.339Z,2.53
2023-04-02T08:22:26.328Z,2.56
2023-04-02T08:23:26.302Z,2.58
2023-04-02T08:24:26.310Z,2.56
2023-04-02T08:25:26.299Z,2.56
2023-04-02T08:26:26.369Z,2.58
2023-04-02T08:27:26.294Z,2.58
2023-04-02T08:28:26.285Z,2.56
2023-04-02T08:29:26.369Z,2.56
2023-04-02T08:30:26.244Z,2.59
2023-04-02T08:31:26.293Z,2.55
2023-04-02T08:32:26.252Z,2.55
2023-04-02T08:33:26.294Z,2.56
2023-04-02T08:34:26.219Z,2.56
2023-04-02T08:35:26.224Z,2.56
2023-04-02T08:36:26.216Z,2.56
2023-04-02T08:37:26.163Z,2.55
2023-04-02T08:38:26.152Z,2.58
2023-04-02T08:39:26.181Z,2.59
2023-04-02T08:40:26.144Z,2.59
2023-04-02T08:41:26.138Z,2.59
2023-04-02T08:42:26.117Z,2.62
2023-04-02T08:43:26.099Z,2.62
2023-04-02T08:44:26.111Z,2.62
2023-04-02T08:45:26.083Z,2.63
2023-04-02T08:46:26.097Z,2.65
2023-04-02T08:47:26.155Z,2.65
2023-04-02T08:48:26.046Z,2.68
2023-04-02T08:49:26.054Z,2.69
2023-04-02T08:50:26.032Z,2.68
2023-04-02T08:51:26.028Z,2.69
2023-04-02T08:52:26.021Z,2.69
2023-04-02T08:53:26.152Z,2.69
2023-04-02T08:54:26.093Z,2.69
2023-04-02T08:55:26.006Z,2.73
2023-04-02T08:56:25.985Z,2.73
2023-04-02T08:57:25.980Z,2.71
2023-04-02T08:58:25.971Z,2.69
2023-04-02T08:59:25.993Z,2.66
2023-04-02T09:00:25.946Z,2.66
2023-04-02T09:01:25.960Z,2.63
2023-04-02T09:02:25.981Z,2.68
2023-04-02T09:03:25.899Z,2.66
2023-04-02T09:04:25.960Z,2.65
2023-04-02T09:05:25.877Z,2.69
2023-04-02T09:06:25.871Z,2.71
2023-04-02T09:07:25.855Z,2.69
2023-04-02T09:08:26.004Z,2.69
2023-04-02T09:09:25.910Z,2.71
2023-04-02T09:10:25.984Z,2.69
2023-04-02T09:11:25.853Z,2.66
2023-04-02T09:12:25.805Z,2.69
2023-04-02T09:13:25.889Z,2.68
2023-04-02T09:14:25.813Z,2.69
2023-04-02T09:15:25.780Z,2.68
2023-04-02T09:16:25.812Z,2.63
2023-04-02T09:17:25.783Z,2.63
2023-04-02T09:18:25.806Z,2.61
2023-04-02T09:19:25.763Z,2.62
2023-04-02T09:20:25.758Z,2.62
2023-04-02T09:21:25.713Z,2.59
2023-04-02T09:22:25.718Z,2.61
2023-04-02T09:23:25.698Z,2.61
2023-04-02T09:24:25.682Z,2.62
2023-04-02T09:25:25.708Z,2.62
2023-04-02T09:26:25.731Z,2.63
2023-04-02T09:27:25.674Z,2.63
2023-04-02T09:28:25.798Z,2.62
2023-04-02T09:29:25.663Z,2.63
2023-04-02T09:30:25.637Z,2.66
2023-04-02T09:31:25.659Z,2.68
2023-04-02T09:32:25.632Z,2.69
2023-04-02T09:33:25.722Z,2.69
2023-04-02T09:34:25.596Z,2.73
2023-04-02T09:35:26.928Z,2.73
2023-04-02T09:36:25.581Z,2.71
2023-04-02T09:37:25.551Z,2.74
2023-04-02T09:38:25.530Z,2.74
2023-04-02T09:39:25.535Z,2.74
2023-04-02T09:40:25.545Z,2.74
2023-04-02T09:41:25.515Z,2.77
2023-04-02T09:42:25.498Z,2.80
2023-04-02T09:43:25.595Z,2.81
2023-04-02T09:44:25.648Z,2.84
2023-04-02T09:45:25.468Z,2.87
2023-04-02T09:46:25.492Z,2.87
2023-04-02T09:47:25.515Z,2.87
2023-04-02T09:48:25.440Z,2.89
2023-04-02T09:49:25.455Z,2.89
2023-04-02T09:50:25.426Z,2.89
2023-04-02T09:51:25.405Z,2.87
2023-04-02T09:52:25.481Z,2.87
2023-04-02T09:53:25.455Z,2.86
2023-04-02T09:54:25.381Z,2.87
2023-04-02T09:55:25.426Z,2.86
2023-04-02T09:56:25.337Z,2.86
2023-04-02T09:57:25.432Z,2.87
2023-04-02T09:58:25.347Z,2.87
2023-04-02T09:59:25.314Z,2.84
2023-04-02T10:00:32.243Z,2.81
2023-04-02T10:01:25.338Z,2.80
2023-04-02T10:02:25.324Z,2.83
2023-04-02T10:03:25.343Z,2.80
2023-04-02T10:04:26.345Z,2.80
2023-04-02T10:05:39.341Z,2.81
2023-04-02T10:06:25.248Z,2.83
2023-04-02T10:07:25.239Z,2.86
2023-04-02T10:08:25.230Z,2.83
2023-04-02T10:09:25.233Z,2.86
2023-04-02T10:10:26.282Z,2.87
2023-04-02T10:11:28.847Z,2.86
2023-04-02T10:12:25.199Z,2.90
2023-04-02T10:13:25.182Z,2.90
2023-04-02T10:14:25.154Z,2.89
2023-04-02T10:15:25.152Z,2.94
2023-04-02T10:16:26.478Z,2.94
2023-04-02T10:17:25.157Z,2.95
2023-04-02T10:18:25.129Z,2.97
2023-04-02T10:19:25.132Z,3.02
2023-04-02T10:20:25.121Z,3.05
2023-04-02T10:21:25.090Z,3.10
2023-04-02T10:22:25.209Z,3.15
2023-04-02T10:23:25.070Z,3.17
2023-04-02T10:24:25.049Z,3.23
2023-04-02T10:25:25.071Z,3.23
2023-04-02T10:26:25.041Z,3.28
2023-04-02T10:27:25.036Z,3.30
2023-04-02T10:28:25.015Z,3.30
2023-04-02T10:29:25.007Z,3.30
2023-04-02T10:30:24.986Z,3.28
2023-04-02T10:31:25.048Z,3.33
2023-04-02T10:32:25.024Z,3.34
2023-04-02T10:33:24.955Z,3.35
2023-04-02T10:34:24.949Z,3.39
2023-04-02T10:35:24.965Z,3.42
2023-04-02T10:36:24.932Z,3.44
2023-04-02T10:37:24.924Z,3.45
2023-04-02T10:38:25.072Z,3.45
2023-04-02T10:39:24.897Z,3.46
2023-04-02T10:40:24.904Z,3.49
2023-04-02T10:41:24.884Z,3.52
2023-04-02T10:42:24.878Z,3.49
2023-04-02T10:43:24.865Z,3.46
2023-04-02T10:44:24.880Z,3.42
2023-04-02T10:45:24.843Z,3.44
2023-04-02T10:46:25.581Z,3.44
2023-04-02T10:47:24.832Z,3.45
2023-04-02T10:48:24.804Z,3.45
2023-04-02T10:49:24.869Z,3.45
2023-04-02T10:50:24.842Z,3.42
2023-04-02T10:51:24.774Z,3.44
2023-04-02T10:52:24.766Z,3.44
2023-04-02T10:53:24.753Z,3.44
2023-04-02T10:54:24.750Z,3.44
2023-04-02T10:55:24.730Z,3.44
2023-04-02T10:56:24.752Z,3.44
2023-04-02T10:57:24.790Z,3.46
2023-04-02T10:58:24.707Z,3.50
2023-04-02T10:59:24.691Z,3.52
2023-04-02T11:00:24.684Z,3.52
2023-04-02T11:01:24.718Z,3.49
2023-04-02T11:02:24.750Z,3.45
2023-04-02T11:03:24.824Z,3.41
2023-04-02T11:04:24.634Z,3.42
2023-04-02T11:05:24.643Z,3.42
2023-04-02T11:06:24.620Z,3.44
2023-04-02T11:07:24.642Z,3.46
2023-04-02T11:08:24.608Z,3.49
2023-04-02T11:09:24.599Z,3.52
2023-04-02T11:10:24.585Z,3.53
2023-04-02T11:11:24.605Z,3.54
2023-04-02T11:12:24.578Z,3.56
2023-04-02T11:13:24.553Z,3.54
2023-04-02T11:14:24.570Z,3.56
2023-04-02T11:15:24.546Z,3.57
2023-04-02T11:16:24.555Z,3.59
2023-04-02T11:17:24.606Z,3.60
2023-04-02T11:18:24.505Z,3.63
2023-04-02T11:19:24.494Z,3.62
2023-04-02T11:20:24.476Z,3.64
2023-04-02T11:21:24.500Z,3.62
2023-04-02T11:22:24.492Z,3.63
2023-04-02T11:23:24.455Z,3.63
2023-04-02T11:24:24.436Z,3.63
2023-04-02T11:25:24.432Z,3.60
2023-04-02T11:26:24.423Z,3.60
2023-04-02T11:27:24.395Z,3.62
2023-04-02T11:28:25.159Z,3.62
2023-04-02T11:29:24.391Z,3.63
2023-04-02T11:30:24.510Z,3.63
2023-04-02T11:31:24.423Z,3.63
2023-04-02T11:32:24.393Z,3.68
2023-04-02T11:33:34.091Z,3.71
2023-04-02T11:34:24.508Z,3.72
2023-04-02T11:35:24.341Z,3.75
2023-04-02T11:36:24.319Z,3.77
2023-04-02T11:37:24.300Z,3.78
2023-04-02T11:38:24.283Z,3.80
2023-04-02T11:39:24.286Z,3.80
2023-04-02T11:40:24.311Z,3.80
2023-04-02T11:41:24.253Z,3.81
2023-04-02T11:42:24.266Z,3.80
2023-04-02T11:43:24.230Z,3.82
2023-04-02T11:44:24.242Z,3.86
2023-04-02T11:45:24.256Z,3.88
2023-04-02T11:46:24.265Z,3.88
2023-04-02T11:47:24.273Z,3.84
2023-04-02T11:48:24.192Z,3.86
2023-04-02T11:49:24.181Z,3.86
2023-04-02T11:50:24.169Z,3.88
2023-04-02T11:51:24.175Z,3.90
2023-04-02T11:52:24.190Z,3.89
2023-04-02T11:53:24.136Z,3.89
2023-04-02T11:54:24.127Z,3.86
2023-04-02T11:55:24.129Z,3.88
2023-04-02T11:56:24.100Z,3.95
2023-04-02T11:57:24.158Z,3.99
2023-04-02T11:58:24.085Z,4.00
2023-04-02T11:59:24.077Z,4.06
2023-04-02T12:00:24.075Z,4.10
2023-04-02T12:01:24.054Z,4.08
2023-04-02T12:02:24.093Z,4.11
2023-04-02T12:03:24.096Z,4.10
2023-04-02T12:04:24.061Z,4.13
2023-04-02T12:05:24.051Z,4.17
2023-04-02T12:06:24.001Z,4.16
2023-04-02T12:07:23.991Z,4.16
2023-04-02T12:08:24.035Z,4.16
2023-04-02T12:09:23.981Z,4.17
2023-04-02T12:10:23.978Z,4.18
2023-04-02T12:11:23.953Z,4.17
2023-04-02T12:12:23.931Z,4.20
2023-04-02T12:13:23.927Z,4.18
2023-04-02T12:14:23.928Z,4.17
2023-04-02T12:15:23.902Z,4.20
2023-04-02T12:16:23.954Z,4.21
2023-04-02T12:17:23.908Z,4.24
2023-04-02T12:18:23.877Z,4.26
2023-04-02T12:19:23.875Z,4.29
2023-04-02T12:20:24.020Z,4.32
2023-04-02T12:21:23.838Z,4.29
2023-04-02T12:22:23.854Z,4.34
2023-04-02T12:23:23.828Z,4.35
2023-04-02T12:24:23.834Z,4.34
2023-04-02T12:25:23.811Z,4.32
2023-04-02T12:26:23.796Z,4.34
2023-04-02T12:27:23.777Z,4.35
2023-04-02T12:28:23.804Z,4.35
2023-04-02T12:29:23.767Z,4.36
2023-04-02T12:30:23.775Z,4.39
2023-04-02T12:31:23.811Z,4.38
2023-04-02T12:32:23.791Z,4.42
2023-04-02T12:33:23.771Z,4.42
2023-04-02T12:34:23.718Z,4.39
2023-04-02T12:35:23.697Z,4.36
2023-04-02T12:36:23.713Z,4.38
2023-04-02T12:37:23.694Z,4.39
2023-04-02T12:38:23.692Z,4.39
2023-04-02T12:39:25.217Z,4.43
2023-04-02T12:40:23.643Z,4.43
2023-04-02T12:41:23.669Z,4.43
2023-04-02T12:42:23.649Z,4.39
2023-04-02T12:43:23.615Z,4.43
2023-04-02T12:44:23.611Z,4.44
2023-04-02T12:45:23.622Z,4.49
2023-04-02T12:46:23.601Z,4.47
2023-04-02T12:47:23.582Z,4.50
2023-04-02T12:48:23.563Z,4.50
2023-04-02T12:49:23.551Z,4.47
2023-04-02T12:50:23.558Z,4.47
2023-04-02T12:51:23.574Z,4.49
2023-04-02T12:52:23.535Z,4.46
2023-04-02T12:53:23.519Z,4.49
2023-04-02T12:54:23.524Z,4.47
2023-04-02T12:55:23.496Z,4.46
2023-04-02T12:56:23.485Z,4.44
2023-04-02T12:57:23.606Z,4.43
2023-04-02T12:58:23.474Z,4.44
2023-04-02T12:59:23.483Z,4.49
2023-04-02T13:00:23.435Z,4.47
2023-04-02T13:01:23.447Z,4.47
2023-04-02T13:02:23.450Z,4.49
2023-04-02T13:03:23.465Z,4.50
2023-04-02T13:04:23.515Z,4.51
2023-04-02T13:05:23.554Z,4.51
2023-04-02T13:06:23.427Z,4.53
2023-04-02T13:07:23.385Z,4.54
2023-04-02T13:08:23.387Z,4.54
2023-04-02T13:09:23.365Z,4.53
2023-04-02T13:10:23.370Z,4.53
2023-04-02T13:11:23.358Z,4.51
2023-04-02T13:12:23.345Z,4.49
2023-04-02T13:13:23.328Z,4.49
2023-04-02T13:14:23.321Z,4.46
2023-04-02T13:15:23.316Z,4.46
2023-04-02T13:16:23.391Z,4.46
2023-04-02T13:17:23.307Z,4.44
2023-04-02T13:18:23.280Z,4.44
2023-04-02T13:19:23.262Z,4.44